Time;durP1;ratioP1;P1;durP2;ratioP2;P2;SDS_P1;SDS_P2;PMS_P1;PMS_P2;Temp;Humidity;BMP_temperature;BMP_pressure;BME280_temperature;BME280_humidity;BME280_pressure;Samples;Min_cycle;Max_cycle;Signal;HPM_P1;HPM_P2
2021/12/09 00:01:02;;;;;;;20.67;18.57;;;;;;;3.25;100.00;99031.66;5003361;28;20184;-54
2021/12/09 00:03:38;;;;;;;17.47;15.67;;;;;;;3.24;100.00;99035.06;4967815;28;1088354;-54
2021/12/09 00:06:06;;;;;;;17.50;15.67;;;;;;;3.22;100.00;99035.06;5009275;28;20210;-54
2021/12/09 00:08:31;;;;;;;18.33;16.50;;;;;;;3.21;100.00;99035.91;5006099;28;20196;-54
2021/12/09 00:11:03;;;;;;;19.53;17.43;;;;;;;3.20;100.00;99036.75;5010351;28;20634;-54
2021/12/09 00:13:29;;;;;;;19.43;17.40;;;;;;;3.19;100.00;99041.00;5003548;28;20244;-54
2021/12/09 00:15:56;;;;;;;16.43;14.83;;;;;;;3.20;100.00;99039.31;5000955;28;20333;-54
2021/12/09 00:18:22;;;;;;;17.93;14.13;;;;;;;3.20;100.00;99040.16;5000086;28;20223;-55
2021/12/09 00:20:48;;;;;;;14.07;12.60;;;;;;;3.21;100.00;99038.47;5001010;27;20641;-55
2021/12/09 00:23:14;;;;;;;12.87;11.57;;;;;;;3.24;100.00;99037.63;5004278;28;20208;-55
2021/12/09 00:25:40;;;;;;;12.67;11.23;;;;;;;3.29;100.00;99046.16;5006427;28;20202;-54
2021/12/09 00:28:05;;;;;;;12.10;10.90;;;;;;;3.31;100.00;99049.56;5005396;28;20211;-55
2021/12/09 00:30:32;;;;;;;12.63;10.20;;;;;;;3.34;100.00;99045.28;5010734;28;20196;-54
2021/12/09 00:32:59;;;;;;;12.00;9.73;;;;;;;3.38;100.00;99042.75;5004396;28;20648;-54
2021/12/09 00:35:30;;;;;;;12.77;11.47;;;;;;;3.40;100.00;99047.00;5004735;28;20196;-54
2021/12/09 00:38:01;;;;;;;14.03;12.53;;;;;;;3.39;100.00;99049.56;5000322;28;20218;-54
2021/12/09 00:40:27;;;;;;;16.97;13.87;;;;;;;3.37;100.00;99052.09;5000613;28;20726;-54
2021/12/09 00:42:53;;;;;;;20.40;16.73;;;;;;;3.33;100.00;99058.06;5005055;28;20195;-54
2021/12/09 00:45:18;;;;;;;28.77;20.40;;;;;;;3.30;100.00;99064.03;5000271;28;20188;-54
2021/12/09 00:47:44;;;;;;;31.20;23.53;;;;;;;3.26;100.00;99057.22;5001337;28;20649;-54
2021/12/09 00:50:10;;;;;;;37.73;24.00;;;;;;;3.21;100.00;99061.47;4993108;28;20193;-54
2021/12/09 00:52:36;;;;;;;37.43;24.73;;;;;;;3.16;100.00;99058.06;5005007;28;20200;-54
2021/12/09 00:55:04;;;;;;;36.87;24.27;;;;;;;3.11;100.00;99063.16;5103369;27;20224;-54
2021/12/09 00:57:30;;;;;;;36.53;25.57;;;;;;;3.06;100.00;99064.84;5004447;28;20334;-54
2021/12/09 00:59:55;;;;;;;34.07;23.20;;;;;;;3.01;100.00;99064.84;5004023;28;20711;-54
2021/12/09 01:02:21;;;;;;;32.10;23.33;;;;;;;2.98;100.00;99064.00;4998077;28;20525;-54
2021/12/09 01:04:47;;;;;;;27.87;20.93;;;;;;;2.93;100.00;99066.56;5001573;28;20288;-55
2021/12/09 01:07:14;;;;;;;27.23;21.10;;;;;;;2.89;100.00;99075.06;5004055;28;20877;-54
2021/12/09 01:09:39;;;;;;;22.93;18.40;;;;;;;2.84;100.00;99081.84;5001388;28;20207;-55
2021/12/09 01:12:06;;;;;;;24.23;17.00;;;;;;;2.80;100.00;99081.00;5001500;28;20656;-54
2021/12/09 01:14:32;;;;;;;22.77;19.43;;;;;;;2.75;100.00;99075.00;5005195;28;20227;-54
2021/12/09 01:16:58;;;;;;;20.80;16.80;;;;;;;2.70;100.00;99089.47;5000829;28;20265;-54
2021/12/09 01:19:23;;;;;;;18.40;14.07;;;;;;;2.64;100.00;99082.66;5009288;28;20195;-54
2021/12/09 01:21:49;;;;;;;15.47;13.13;;;;;;;2.59;100.00;99089.44;5006073;28;20184;-53
2021/12/09 01:24:14;;;;;;;14.13;11.80;;;;;;;2.54;100.00;99088.53;5001818;28;20180;-53
2021/12/09 01:26:41;;;;;;;12.97;10.10;;;;;;;2.48;100.00;99091.94;5005887;28;20219;-54
2021/12/09 01:29:16;;;;;;;11.17;9.97;;;;;;;2.42;100.00;99089.38;5020589;27;20193;-53
2021/12/09 01:31:44;;;;;;;10.67;8.43;;;;;;;2.35;100.00;99087.63;5001330;28;21318;-53
2021/12/09 01:34:09;;;;;;;11.93;8.97;;;;;;;2.31;100.00;99093.53;5001932;28;20217;-54
2021/12/09 01:36:36;;;;;;;9.03;7.90;;;;;;;2.25;100.00;99102.91;5004243;28;20314;-53
2021/12/09 01:39:04;;;;;;;10.60;8.20;;;;;;;2.20;100.00;99103.69;5002495;28;20545;-55
2021/12/09 01:41:30;;;;;;;10.73;7.33;;;;;;;2.15;100.00;99102.81;5006303;28;20216;-53
2021/12/09 01:43:56;;;;;;;11.17;7.63;;;;;;;2.09;100.00;99107.03;5011521;28;20657;-53
2021/12/09 01:46:22;;;;;;;9.33;8.33;;;;;;;2.05;100.00;99110.41;5005524;28;20242;-53
2021/12/09 01:48:50;;;;;;;14.00;9.03;;;;;;;2.00;100.00;99107.00;5005432;28;20639;-53
2021/12/09 01:51:16;;;;;;;9.97;8.47;;;;;;;1.97;100.00;99112.91;4993199;28;20189;-54
2021/12/09 01:53:42;;;;;;;13.20;9.53;;;;;;;1.96;100.00;99112.91;5011114;28;20235;-55
2021/12/09 01:56:12;;;;;;;12.33;9.53;;;;;;;1.92;100.00;99112.03;5004956;28;20278;-54
2021/12/09 01:58:37;;;;;;;10.63;8.73;;;;;;;1.90;100.00;99110.28;5009661;28;20187;-53
2021/12/09 02:01:05;;;;;;;9.33;8.00;;;;;;;1.87;100.00;99112.84;5006379;28;20247;-53
2021/12/09 02:03:34;;;;;;;10.90;8.30;;;;;;;1.85;100.00;99114.53;5003396;28;20192;-54
2021/12/09 02:05:59;;;;;;;10.77;8.30;;;;;;;1.85;100.00;99112.81;5003953;28;20889;-54
2021/12/09 02:08:25;;;;;;;11.60;9.23;;;;;;;1.92;100.00;99118.81;5006725;28;20742;-53
2021/12/09 02:10:51;;;;;;;11.47;8.80;;;;;;;2.02;100.00;99109.53;5008900;28;20213;-53
2021/12/09 02:13:18;;;;;;;13.73;9.80;;;;;;;2.11;100.00;99118.13;5039015;28;20190;-53
2021/12/09 02:15:45;;;;;;;16.20;13.10;;;;;;;2.19;100.00;99113.06;5008276;28;20218;-53
2021/12/09 02:18:12;;;;;;;14.97;11.80;;;;;;;2.24;100.00;99119.06;4996177;28;20758;-53
2021/12/09 02:20:40;;;;;;;12.70;10.90;;;;;;;2.29;100.00;99116.53;5005241;28;20505;-54
2021/12/09 02:23:10;;;;;;;11.13;9.20;;;;;;;2.36;100.00;99120.81;5006088;28;20192;-54
2021/12/09 02:25:37;;;;;;;11.90;8.70;;;;;;;2.42;100.00;99114.91;5001864;28;20179;-53
2021/12/09 02:28:03;;;;;;;12.33;8.47;;;;;;;2.48;100.00;99114.06;5000124;28;20430;-54
2021/12/09 02:30:29;;;;;;;10.00;7.77;;;;;;;2.54;100.00;99107.28;5003537;28;20210;-54
2021/12/09 02:32:54;;;;;;;10.80;8.00;;;;;;;2.59;100.00;99114.97;5004804;28;20794;-54
2021/12/09 02:35:20;;;;;;;11.07;7.73;;;;;;;2.64;100.00;99117.53;5009460;28;20306;-54
2021/12/09 02:37:45;;;;;;;9.77;7.77;;;;;;;2.67;100.00;99123.50;5014586;28;20234;-54
2021/12/09 02:40:12;;;;;;;8.70;7.80;;;;;;;2.69;100.00;99120.97;5016537;28;20562;-54
2021/12/09 02:42:38;;;;;;;9.83;7.33;;;;;;;2.71;100.00;99130.34;5003757;28;20295;-54
2021/12/09 02:45:06;;;;;;;8.77;7.43;;;;;;;2.72;100.00;99129.50;4994797;28;20230;-53
2021/12/09 02:47:33;;;;;;;8.07;6.60;;;;;;;2.72;100.00;99137.16;5002448;28;20204;-54
2021/12/09 02:49:59;;;;;;;8.27;6.57;;;;;;;2.73;100.00;99138.88;5001457;28;20269;-54
2021/12/09 02:52:25;;;;;;;8.00;6.07;;;;;;;2.75;100.00;99151.66;4997934;28;20184;-53
2021/12/09 02:54:51;;;;;;;8.80;6.77;;;;;;;2.77;100.00;99147.41;4999294;28;20264;-54
2021/12/09 02:57:17;;;;;;;9.63;6.80;;;;;;;2.79;100.00;99155.09;4996750;28;20208;-53
2021/12/09 02:59:44;;;;;;;7.20;6.50;;;;;;;2.83;100.00;99156.78;4988996;28;20180;-54
2021/12/09 03:02:11;;;;;;;7.27;6.33;;;;;;;2.86;100.00;99159.38;5002024;28;20641;-53
2021/12/09 03:04:49;;;;;;;8.20;6.87;;;;;;;2.88;100.00;99162.78;5003548;28;20185;-53
2021/12/09 03:07:37;;;;;;;7.10;6.33;;;;;;;2.90;100.00;99161.09;5005921;28;20285;-54
2021/12/09 03:10:20;;;;;;;6.33;5.73;;;;;;;2.92;100.00;99161.09;5007002;28;20236;-54
2021/12/09 03:12:55;;;;;;;8.10;6.03;;;;;;;2.92;100.00;99164.50;5008547;28;20180;-54
2021/12/09 03:15:21;;;;;;;8.93;6.33;;;;;;;2.92;100.00;99163.66;5005777;28;20307;-53
2021/12/09 03:17:47;;;;;;;7.53;6.20;;;;;;;2.91;100.00;99167.91;5010618;28;20667;-54
2021/12/09 03:20:14;;;;;;;8.47;5.93;;;;;;;2.92;100.00;99167.06;5004827;28;20183;-54
2021/12/09 03:22:41;;;;;;;6.53;5.80;;;;;;;2.94;100.00;99172.16;5003506;28;20192;-54
2021/12/09 03:25:09;;;;;;;7.17;5.20;;;;;;;2.95;100.00;99172.16;5001474;28;20192;-53
2021/12/09 03:27:34;;;;;;;8.00;5.70;;;;;;;2.97;100.00;99165.38;5008015;28;20223;-53
2021/12/09 03:30:00;;;;;;;7.87;5.90;;;;;;;2.97;100.00;99173.03;5005122;28;20604;-54
2021/12/09 03:32:28;;;;;;;6.83;4.90;;;;;;;2.98;100.00;99172.19;5006993;28;20326;-54
2021/12/09 03:34:54;;;;;;;7.13;5.20;;;;;;;2.99;100.00;99171.34;4999264;28;20217;-55
2021/12/09 03:37:26;;;;;;;8.57;5.57;;;;;;;2.99;100.00;99171.34;5002063;28;20231;-54
2021/12/09 03:39:53;;;;;;;6.80;5.60;;;;;;;3.00;100.00;99172.22;4998133;28;20192;-54
2021/12/09 03:42:23;;;;;;;8.33;5.67;;;;;;;2.98;100.00;99181.56;5009565;28;20176;-54
2021/12/09 03:44:49;;;;;;;5.37;4.87;;;;;;;2.97;100.00;99185.81;5006915;28;20323;-54
2021/12/09 03:47:17;;;;;;;6.93;5.03;;;;;;;2.96;100.00;99179.00;5008096;28;20217;-54
2021/12/09 03:49:42;;;;;;;5.03;4.53;;;;;;;2.96;100.00;99180.69;5005646;28;20264;-54
2021/12/09 03:52:10;;;;;;;6.60;5.00;;;;;;;2.94;100.00;99188.38;5006955;28;20637;-54
2021/12/09 03:54:36;;;;;;;8.33;5.43;;;;;;;2.90;100.00;99177.25;5005953;28;20253;-54
2021/12/09 03:57:02;;;;;;;6.80;5.80;;;;;;;2.84;100.00;99179.81;5008748;28;20843;-54
2021/12/09 03:59:27;;;;;;;9.13;5.80;;;;;;;2.80;100.00;99179.78;5005658;28;20195;-54
2021/12/09 04:01:54;;;;;;;5.97;5.20;;;;;;;2.71;100.00;99181.44;4997638;28;20620;-54
2021/12/09 04:04:21;;;;;;;7.10;5.00;;;;;;;2.62;100.00;99171.19;5005131;28;20192;-54
2021/12/09 04:06:46;;;;;;;9.80;6.00;;;;;;;2.53;100.00;99176.22;5003619;28;20236;-54
2021/12/09 04:09:15;;;;;;;8.33;5.60;;;;;;;2.42;100.00;99182.13;5007867;28;20284;-54
2021/12/09 04:11:40;;;;;;;8.73;5.93;;;;;;;2.33;100.00;99184.63;5007381;28;20608;-54
2021/12/09 04:14:06;;;;;;;10.07;5.53;;;;;;;2.25;100.00;99191.38;5005145;28;20290;-53
2021/12/09 04:16:33;;;;;;;7.67;5.93;;;;;;;2.19;100.00;99199.84;5002409;28;20204;-54
2021/12/09 04:18:59;;;;;;;8.27;5.57;;;;;;;2.12;100.00;99195.53;5007298;28;21722;-54
2021/12/09 04:21:25;;;;;;;8.50;6.13;;;;;;;2.07;100.00;99202.31;5009009;28;20254;-54
2021/12/09 04:23:50;;;;;;;8.93;6.70;;;;;;;2.01;100.00;99200.56;5010587;28;20645;-55
2021/12/09 04:26:16;;;;;;;7.43;5.87;;;;;;;1.93;100.00;99195.41;5005662;28;20574;-54
2021/12/09 04:28:42;;;;;;;9.93;6.00;;;;;;;1.87;100.00;99199.59;5009275;28;20192;-53
2021/12/09 04:31:07;;;;;;;9.33;6.20;;;;;;;1.81;100.00;99197.84;4997516;28;20203;-54
2021/12/09 04:33:33;;;;;;;8.80;6.33;;;;;;;1.75;100.00;99200.34;5007993;28;20212;-54
2021/12/09 04:35:59;;;;;;;7.97;6.23;;;;;;;1.68;100.00;99205.38;5004860;28;20190;-54
2021/12/09 04:38:26;;;;;;;10.43;6.73;;;;;;;1.61;100.00;99205.28;5004247;28;20184;-54
2021/12/09 04:40:51;;;;;;;7.97;6.83;;;;;;;1.55;100.00;99203.53;5003103;28;22170;-54
2021/12/09 04:43:17;;;;;;;8.83;6.60;;;;;;;1.54;100.00;99206.06;5003980;28;20661;-55
2021/12/09 04:45:42;;;;;;;9.87;7.23;;;;;;;1.50;100.00;99210.31;5000689;28;20707;-54
2021/12/09 04:48:08;;;;;;;12.27;7.87;;;;;;;1.52;100.00;99213.69;4996223;28;20205;-54
2021/12/09 04:50:36;;;;;;;12.13;7.73;;;;;;;1.52;100.00;99203.50;5001203;28;20188;-54
2021/12/09 04:53:02;;;;;;;9.10;7.10;;;;;;;1.49;100.00;99211.97;5002085;28;20203;-54
2021/12/09 04:55:28;;;;;;;12.57;8.20;;;;;;;1.48;100.00;99212.81;5011668;28;20224;-54
2021/12/09 04:57:54;;;;;;;10.00;7.93;;;;;;;1.44;100.00;99211.06;5013528;28;20209;-54
2021/12/09 05:00:22;;;;;;;14.53;8.20;;;;;;;1.40;100.00;99218.66;5008579;28;20262;-54
2021/12/09 05:03:03;;;;;;;12.80;8.37;;;;;;;1.36;100.00;99222.88;5007905;28;20192;-53
2021/12/09 05:05:50;;;;;;;11.57;8.47;;;;;;;1.29;100.00;99229.63;5009521;28;20952;-53
2021/12/09 05:08:19;;;;;;;10.93;7.57;;;;;;;1.21;100.00;99232.06;5012931;28;20211;-54
2021/12/09 05:13:29;;;;;;;10.47;7.60;;;;;;;1.11;100.00;99240.44;4996361;28;20250;-54
2021/12/09 05:15:56;;;;;;;8.80;7.90;;;;;;;1.09;100.00;99244.66;5002482;28;20609;-54
2021/12/09 05:18:23;;;;;;;10.10;9.10;;;;;;;1.09;100.00;99248.88;5001551;28;20188;-54
2021/12/09 05:20:50;;;;;;;12.67;8.83;;;;;;;1.08;100.00;99250.59;5003946;28;20298;-54
2021/12/09 05:23:17;;;;;;;12.20;9.43;;;;;;;1.08;100.00;99255.69;5004620;28;20196;-54
2021/12/09 05:25:44;;;;;;;13.07;9.43;;;;;;;1.12;100.00;99260.00;4997785;28;20196;-54
2021/12/09 05:28:11;;;;;;;12.03;9.47;;;;;;;1.21;100.00;99266.91;5000224;28;20213;-53
2021/12/09 05:32:07;;;;;;;10.50;9.50;;;;;;;1.31;100.00;99263.63;4997393;28;20660;-57
2021/12/09 05:33:27;;;;;;;12.37;9.43;;;;;;;1.44;100.00;99272.25;4997732;28;20281;-54
2021/12/09 05:35:53;;;;;;;12.90;9.53;;;;;;;1.56;100.00;99268.16;4999033;28;20301;-54
2021/12/09 05:38:19;;;;;;;10.67;9.40;;;;;;;1.67;100.00;99272.50;5002292;28;20688;-54
2021/12/09 05:40:44;;;;;;;12.13;9.23;;;;;;;1.79;100.00;99276.06;4999813;28;20207;-54
2021/12/09 05:43:10;;;;;;;11.37;10.10;;;;;;;1.88;100.00;99268.47;5000971;28;21168;-54
2021/12/09 05:45:35;;;;;;;13.20;9.73;;;;;;;1.98;100.00;99274.53;5001323;28;20645;-54
2021/12/09 05:48:00;;;;;;;12.10;9.87;;;;;;;2.04;100.00;99273.75;5010760;28;20220;-55
2021/12/09 05:50:26;;;;;;;10.20;9.10;;;;;;;2.10;100.00;99274.66;5001670;28;21079;-54
2021/12/09 05:52:51;;;;;;;12.50;9.70;;;;;;;2.16;100.00;99276.41;5016098;28;20191;-54
2021/12/09 05:55:17;;;;;;;11.93;9.53;;;;;;;2.22;100.00;99279.00;5014117;28;20699;-54
2021/12/09 05:57:42;;;;;;;14.63;10.07;;;;;;;2.26;100.00;99280.75;5010023;28;20645;-54
2021/12/09 06:00:08;;;;;;;10.80;9.40;;;;;;;2.30;100.00;99281.63;5010122;28;20195;-53
2021/12/09 06:02:35;;;;;;;12.00;9.50;;;;;;;2.34;100.00;99273.16;5026247;27;20762;-54
2021/12/09 06:05:02;;;;;;;10.00;8.93;;;;;;;2.36;100.00;99281.66;5011271;28;20192;-54
2021/12/09 06:07:27;;;;;;;11.83;9.73;;;;;;;2.36;100.00;99283.38;5002550;28;20212;-54
2021/12/09 06:09:54;;;;;;;9.77;8.77;;;;;;;2.37;100.00;99282.53;5024618;28;20209;-54
2021/12/09 06:12:20;;;;;;;9.87;8.87;;;;;;;2.39;100.00;99285.97;5058439;28;20176;-54
2021/12/09 06:14:45;;;;;;;10.07;9.00;;;;;;;2.42;100.00;99283.44;5008752;28;20714;-54
2021/12/09 06:17:11;;;;;;;12.83;9.37;;;;;;;2.44;100.00;99292.81;5012391;28;20207;-54
2021/12/09 06:19:36;;;;;;;11.80;9.27;;;;;;;2.49;100.00;99304.78;5022974;28;20187;-54
2021/12/09 06:22:02;;;;;;;13.93;9.60;;;;;;;2.52;100.00;99304.78;5045779;28;20192;-54
2021/12/09 06:24:28;;;;;;;10.67;9.30;;;;;;;2.55;100.00;99304.81;5040074;28;20549;-55
2021/12/09 06:26:53;;;;;;;10.63;9.23;;;;;;;2.56;100.00;99304.84;4999203;28;20215;-54
2021/12/09 06:29:18;;;;;;;10.73;8.90;;;;;;;2.59;100.00;99312.50;5019617;28;20290;-54
2021/12/09 06:31:44;;;;;;;12.57;8.67;;;;;;;2.64;100.00;99311.69;5036741;28;20190;-54
2021/12/09 06:34:12;;;;;;;9.20;8.30;;;;;;;2.66;100.00;99317.66;5008157;28;20277;-55
2021/12/09 06:36:38;;;;;;;11.47;9.10;;;;;;;2.70;100.00;99317.69;5003177;28;20259;-54
2021/12/09 06:39:05;;;;;;;10.17;8.77;;;;;;;2.73;100.00;99320.28;5052428;27;20269;-55
2021/12/09 06:41:31;;;;;;;10.27;8.43;;;;;;;2.77;100.00;99318.59;5023606;28;20195;-54
2021/12/09 06:43:56;;;;;;;9.97;8.83;;;;;;;2.81;100.00;99317.78;5041131;28;20194;-55
2021/12/09 06:46:22;;;;;;;9.50;8.47;;;;;;;2.83;100.00;99322.88;5005026;28;20257;-55
2021/12/09 06:48:47;;;;;;;9.20;7.40;;;;;;;2.84;100.00;99328.03;4999004;28;20197;-55
2021/12/09 06:51:13;;;;;;;9.87;8.63;;;;;;;2.87;100.00;99327.19;4993653;28;20197;-54
2021/12/09 06:53:39;;;;;;;9.80;8.63;;;;;;;2.88;100.00;99329.72;4999467;28;20204;-54
2021/12/09 06:56:05;;;;;;;13.10;8.70;;;;;;;2.91;100.00;99326.38;4996308;28;20540;-54
2021/12/09 06:58:30;;;;;;;9.80;8.10;;;;;;;2.88;100.00;99313.56;5004926;28;20262;-53
2021/12/09 07:00:57;;;;;;;10.10;8.00;;;;;;;2.88;100.00;99321.22;4999960;28;20185;-54
2021/12/09 07:03:23;;;;;;;10.67;8.17;;;;;;;2.87;100.00;99312.69;5009660;28;20203;-53
2021/12/09 07:05:50;;;;;;;8.93;8.03;;;;;;;2.87;100.00;99322.91;5006629;28;20192;-54
2021/12/09 07:08:16;;;;;;;10.10;8.30;;;;;;;2.87;100.00;99328.03;5043683;28;20294;-54
2021/12/09 07:10:42;;;;;;;14.20;9.37;;;;;;;2.86;100.00;99326.34;5017939;28;20196;-54
2021/12/09 07:13:08;;;;;;;11.17;8.90;;;;;;;2.87;100.00;99325.47;5105359;27;20520;-54
2021/12/09 07:15:34;;;;;;;10.17;8.33;;;;;;;2.86;100.00;99334.00;5018858;28;20209;-53
2021/12/09 07:18:00;;;;;;;8.83;7.60;;;;;;;2.86;100.00;99326.34;5028459;28;20211;-54
2021/12/09 07:20:27;;;;;;;9.40;7.97;;;;;;;2.86;100.00;99331.44;5056376;28;20187;-55
2021/12/09 07:22:54;;;;;;;9.73;7.73;;;;;;;2.88;100.00;99334.00;5036470;28;20731;-55
2021/12/09 07:25:21;;;;;;;10.47;8.43;;;;;;;2.90;100.00;99328.03;5026101;28;20295;-53
2021/12/09 07:27:47;;;;;;;9.43;8.27;;;;;;;2.94;100.00;99330.63;5019206;28;20602;-54
2021/12/09 07:30:15;;;;;;;9.93;8.20;;;;;;;2.98;100.00;99333.22;5001527;28;20219;-55
2021/12/09 07:32:41;;;;;;;10.03;7.50;;;;;;;3.02;100.00;99340.06;5001360;28;20226;-53
2021/12/09 07:35:08;;;;;;;8.57;7.77;;;;;;;3.05;100.00;99327.31;5012693;28;20595;-55
2021/12/09 07:37:37;;;;;;;9.43;7.80;;;;;;;3.12;100.00;99335.00;5016259;27;20212;-54
2021/12/09 07:40:08;;;;;;;9.43;7.53;;;;;;;3.14;100.00;99341.84;5015369;28;20210;-52
2021/12/09 07:42:34;;;;;;;9.07;7.57;;;;;;;3.17;100.00;99341.00;5014761;28;20192;-55
2021/12/09 07:45:00;;;;;;;8.57;6.90;;;;;;;3.21;100.00;99340.19;5008997;28;20202;-54
2021/12/09 07:47:25;;;;;;;9.10;6.97;;;;;;;3.24;100.00;99334.22;5010741;28;20217;-54
2021/12/09 07:49:51;;;;;;;9.10;7.60;;;;;;;3.27;100.00;99326.56;5017703;28;20192;-54
2021/12/09 07:52:16;;;;;;;8.87;7.50;;;;;;;3.31;100.00;99329.16;5008606;28;20583;-54
2021/12/09 07:54:41;;;;;;;9.00;7.37;;;;;;;3.34;100.00;99334.28;5010496;28;20220;-54
2021/12/09 07:57:07;;;;;;;8.43;7.20;;;;;;;3.39;100.00;99334.28;5015977;28;20236;-55
2021/12/09 07:59:33;;;;;;;8.73;6.80;;;;;;;3.43;100.00;99342.84;5016278;28;20667;-55
2021/12/09 08:01:59;;;;;;;8.10;7.30;;;;;;;3.47;100.00;99342.00;5018300;28;20200;-55
2021/12/09 08:04:24;;;;;;;9.80;6.80;;;;;;;3.51;100.00;99331.78;5012629;28;20325;-55
2021/12/09 08:06:50;;;;;;;8.60;6.70;;;;;;;3.55;100.00;99334.38;5010811;28;20660;-54
2021/12/09 08:09:15;;;;;;;9.13;6.47;;;;;;;3.57;100.00;99341.19;5025272;28;20176;-54
2021/12/09 08:11:43;;;;;;;10.20;7.10;;;;;;;3.60;100.00;99338.66;5006347;28;20194;-54
2021/12/09 08:14:11;;;;;;;10.50;8.23;;;;;;;3.64;100.00;99336.94;5012408;28;20595;-54
2021/12/09 08:16:38;;;;;;;9.87;8.17;;;;;;;3.66;100.00;99348.06;5006972;28;20329;-55
2021/12/09 08:19:12;;;;;;;9.43;7.93;;;;;;;3.69;100.00;99350.63;5023210;28;20185;-54
2021/12/09 08:21:38;;;;;;;12.27;7.97;;;;;;;3.74;100.00;99355.75;5008934;28;20310;-54
2021/12/09 08:24:05;;;;;;;10.33;7.70;;;;;;;3.78;100.00;99360.88;5039639;28;20700;-54
2021/12/09 08:26:32;;;;;;;8.97;8.03;;;;;;;3.83;100.00;99367.75;5012403;27;20213;-55
2021/12/09 08:28:57;;;;;;;11.70;7.77;;;;;;;3.87;100.00;99366.91;5019027;28;20227;-54
2021/12/09 08:31:22;;;;;;;9.80;7.93;;;;;;;3.90;100.00;99374.59;5017726;28;20600;-54
2021/12/09 08:33:48;;;;;;;10.27;7.33;;;;;;;3.93;100.00;99375.47;5023457;28;20215;-54
2021/12/09 08:36:14;;;;;;;10.43;7.87;;;;;;;3.96;100.00;99374.59;5010342;28;20304;-54
2021/12/09 08:38:39;;;;;;;11.43;7.83;;;;;;;3.98;100.00;99390.84;5022989;28;20275;-54
2021/12/09 08:41:05;;;;;;;8.93;7.87;;;;;;;4.00;100.00;99390.84;5043305;28;20643;-54
2021/12/09 08:43:30;;;;;;;10.70;9.40;;;;;;;4.01;100.00;99397.69;5023021;28;20553;-54
2021/12/09 08:45:57;;;;;;;9.77;8.73;;;;;;;4.00;100.00;99408.78;5044311;28;20804;-54
2021/12/09 08:48:25;;;;;;;11.37;8.97;;;;;;;4.01;100.00;99405.38;5014646;28;20187;-53
2021/12/09 08:50:51;;;;;;;12.00;9.27;;;;;;;3.97;100.00;99418.16;5046587;28;20206;-54
2021/12/09 08:53:19;;;;;;;10.17;9.00;;;;;;;3.93;100.00;99429.22;5015080;28;20581;-54
2021/12/09 08:55:45;;;;;;;9.93;8.87;;;;;;;3.89;100.00;99429.22;5030798;28;20196;-54
2021/12/09 08:58:11;;;;;;;10.20;9.00;;;;;;;3.87;100.00;99436.03;5039571;28;20214;-54
2021/12/09 09:00:37;;;;;;;12.40;9.37;;;;;;;3.82;100.00;99438.56;5018788;28;20606;-53
2021/12/09 09:03:04;;;;;;;10.47;9.40;;;;;;;3.79;100.00;99439.38;5010113;28;20234;-54
2021/12/09 09:05:32;;;;;;;10.90;9.47;;;;;;;3.79;100.00;99438.53;5006426;28;20276;-54
2021/12/09 09:07:58;;;;;;;10.37;9.27;;;;;;;3.79;100.00;99441.09;5009558;28;20250;-54
2021/12/09 09:10:28;;;;;;;10.07;9.07;;;;;;;3.80;100.00;99447.94;5055569;28;20204;-54
2021/12/09 09:12:54;;;;;;;10.03;8.27;;;;;;;3.81;100.00;99447.94;5017634;28;20194;-54
2021/12/09 09:15:22;;;;;;;10.07;8.97;;;;;;;3.86;100.00;99452.22;5007935;28;20709;-54
2021/12/09 09:17:48;;;;;;;8.90;8.00;;;;;;;3.88;100.00;99453.09;5008160;28;20685;-54
2021/12/09 09:20:16;;;;;;;84.47;43.77;;;;;;;3.90;100.00;99452.25;5021427;28;20264;-54
2021/12/09 09:22:42;;;;;;;63.67;37.00;;;;;;;3.94;100.00;99453.09;5024261;28;20191;-54
2021/12/09 09:25:17;;;;;;;50.10;28.60;;;;;;;3.99;100.00;99459.09;5003346;28;20192;-55
2021/12/09 09:27:42;;;;;;;35.77;22.10;;;;;;;4.03;100.00;99458.28;5015411;28;20261;-53
2021/12/09 09:30:08;;;;;;;33.57;19.80;;;;;;;4.09;100.00;99460.84;5011545;28;20234;-55
2021/12/09 09:32:34;;;;;;;26.43;16.27;;;;;;;4.17;100.00;99467.72;5011117;28;20194;-55
2021/12/09 09:35:00;;;;;;;32.27;20.57;;;;;;;4.24;100.00;99466.88;5010952;28;20504;-55
2021/12/09 09:37:25;;;;;;;115.20;56.40;;;;;;;4.31;100.00;99458.38;5008315;28;20209;-55
2021/12/09 09:39:51;;;;;;;72.70;39.93;;;;;;;4.36;100.00;99460.94;5029190;28;20596;-55
2021/12/09 09:42:34;;;;;;;54.63;31.67;;;;;;;4.42;100.00;99464.38;5030685;28;20213;-54
2021/12/09 09:45:00;;;;;;;47.23;27.37;;;;;;;4.50;100.00;99464.41;5064010;28;20587;-55
2021/12/09 09:47:27;;;;;;;63.77;37.13;;;;;;;4.54;100.00;99463.56;5043322;28;20197;-53
2021/12/09 09:49:56;;;;;;;64.37;37.10;;;;;;;4.60;100.00;99464.44;5025401;28;20248;-53
2021/12/09 09:52:22;;;;;;;65.23;39.07;;;;;;;4.67;100.00;99467.03;5014201;28;20609;-55
2021/12/09 09:54:49;;;;;;;61.00;38.87;;;;;;;4.78;100.00;99458.47;5028033;28;20296;-53
2021/12/09 09:57:14;;;;;;;44.77;27.87;;;;;;;4.87;100.00;99458.47;5004347;28;20208;-53
2021/12/09 09:59:41;;;;;;;21.60;16.03;;;;;;;4.97;100.00;99455.09;5023547;28;20394;-55
2021/12/09 10:02:09;;;;;;;29.13;20.70;;;;;;;5.04;100.00;99461.06;5018874;28;20192;-53
2021/12/09 10:04:59;;;;;;;18.80;13.93;;;;;;;5.15;100.00;99459.34;5027516;28;20286;-55
2021/12/09 10:07:25;;;;;;;12.23;10.07;;;;;;;5.29;100.00;99461.94;5015293;28;20312;-55
2021/12/09 10:09:52;;;;;;;11.93;9.20;;;;;;;5.36;100.00;99464.47;5013302;28;20213;-55
2021/12/09 10:12:18;;;;;;;9.60;8.33;;;;;;;5.34;100.00;99464.50;5016676;28;20190;-55
2021/12/09 10:15:04;;;;;;;11.10;7.30;;;;;;;5.27;100.00;99460.19;5018199;28;20213;-54
2021/12/09 10:17:29;;;;;;;9.17;6.03;;;;;;;5.15;100.00;99461.91;5019768;28;20222;-54
2021/12/09 10:20:03;;;;;;;7.50;6.07;;;;;;;5.11;100.00;99449.09;5038096;28;20530;-55
2021/12/09 10:22:32;;;;;;;7.13;5.50;;;;;;;5.12;100.00;99453.38;5025751;28;20190;-55
2021/12/09 10:24:59;;;;;;;6.77;4.87;;;;;;;5.17;100.00;99456.78;5036102;28;20273;-54
2021/12/09 10:27:34;;;;;;;5.90;5.13;;;;;;;5.24;100.00;99452.50;5020341;28;20647;-54
2021/12/09 10:30:05;;;;;;;4.93;4.43;;;;;;;5.34;100.00;99446.53;5029517;28;20259;-54
2021/12/09 10:32:34;;;;;;;6.17;4.60;;;;;;;5.47;100.00;99448.22;5004107;28;20287;-54
2021/12/09 10:35:12;;;;;;;6.87;4.37;;;;;;;5.61;100.00;99447.34;5014639;28;20275;-54
2021/12/09 10:37:39;;;;;;;5.17;4.33;;;;;;;5.68;100.00;99448.16;5118432;27;20218;-55
2021/12/09 10:40:05;;;;;;;5.77;4.50;;;;;;;5.67;100.00;99441.31;5023277;28;20184;-55
2021/12/09 10:42:39;;;;;;;8.23;5.07;;;;;;;5.63;100.00;99433.63;5020535;28;20793;-55
2021/12/09 10:45:15;;;;;;;6.23;4.80;;;;;;;5.63;100.00;99451.59;5098656;27;20196;-55
2021/12/09 10:48:31;;;;;;;5.00;4.13;;;;;;;5.62;100.00;99449.88;5011399;28;20212;-55
2021/12/09 10:53:36;;;;;;;;;;;;;;;;;;;;;
2021/12/09 10:56:09;;;;;;;6.30;4.37;;;;;;;5.50;100.00;99449.91;5020620;28;20593;-55
2021/12/09 10:58:36;;;;;;;5.73;4.50;;;;;;;5.38;100.00;99457.63;5008103;28;20204;-54
2021/12/09 11:01:01;;;;;;;6.47;4.47;;;;;;;5.29;100.00;99456.81;5013907;28;21698;-55
2021/12/09 11:03:40;;;;;;;5.10;4.03;;;;;;;5.24;100.00;99449.94;5010684;28;20213;-54
2021/12/09 11:06:10;;;;;;;4.40;3.90;;;;;;;5.21;100.00;99450.81;5034939;28;20190;-55
2021/12/09 11:08:37;;;;;;;8.47;5.40;;;;;;;5.16;100.00;99445.69;5015811;28;21018;-54
2021/12/09 11:11:25;;;;;;;5.80;4.83;;;;;;;5.12;100.00;99446.53;5113728;27;20196;-54
2021/12/09 11:14:11;;;;;;;6.60;4.37;;;;;;;5.10;100.00;99449.97;5014008;28;20210;-54
2021/12/09 11:16:41;;;;;;;5.93;4.13;;;;;;;5.11;100.00;99442.25;5013869;28;20559;-54
2021/12/09 11:19:06;;;;;;;4.83;4.20;;;;;;;5.16;100.00;99443.13;5013869;28;20527;-54
2021/12/09 11:21:37;;;;;;;5.97;4.30;;;;;;;5.24;100.00;99445.69;5012735;28;20245;-54
2021/12/09 11:24:11;;;;;;;6.33;3.70;;;;;;;5.34;100.00;99442.25;5008987;28;20196;-54
2021/12/09 11:26:51;;;;;;;6.27;4.00;;;;;;;5.45;100.00;99434.53;5015378;28;20219;-54
2021/12/09 11:29:30;;;;;;;4.90;3.70;;;;;;;5.58;100.00;99430.22;5013790;28;20644;-54
2021/12/09 11:32:06;;;;;;;6.77;3.83;;;;;;;5.67;100.00;99438.75;5012573;28;20202;-54
2021/12/09 11:34:44;;;;;;;6.23;3.30;;;;;;;5.70;100.00;99437.03;5029829;28;20220;-54
2021/12/09 11:37:34;;;;;;;4.27;3.10;;;;;;;5.72;100.00;99439.59;5012663;28;20208;-54